PREVISON - TAF: TAF - Paris-Aeroport Charles De Gaulle, France du: 20171121110000h UTC
TypeJUTCVentVisi. H.CouvertureMétéo
PREVISION 211100 221100 220° 19R37 km/h >10000 m BKN à 427 m
EVOLUTION 220000 211200 BKN à 610 m
EVOLUTION 220000 211400 BKN à 335 m
PROB prob. 30%
PROVISOIRE 211800 211800 BKN à 183 m
EVOLUTION 220000 220900 CAVOK

PREVISION brut - TAF LFPG 211100Z 2112/2218 22010G20KT 9999 BKN014 BECMG 2112/2113 BKN020 BECMG 2114/2117 BKN011 PROB30 TEMPO 2118/2204 BKN006 BECMG 2209/2212 CAVOK TX14/2214Z TN08/2208Z


METAR brut: LFPG 211600Z 19008KT 9999 BKN020 10/07 Q1015 NOSIG
Vent: Paris-Aeroport Charles De Gaulle, France Météo: Paris-Aeroport Charles De Gaulle, France
METAR décodé: Paris-Aeroport Charles De Gaulle, France.
Up : quelques secondes à 16:00 UTC.
Vent : 15 km/h >> Sud (190°).
Visibilité Hor. : plus de 10 km.
Nuages : BKN 5/8>7/8 à 610 m.
Température : 10 °C. P. rosée. : 7 °C.
Humidité : 81.6%.
Pression : 1015 hPa.
Météo : pas de changement significatif dans les deux prochaines heures..